sensor_id;sensor_type;location;lat;lon;timestamp;P1;durP1;ratioP1;P2;durP2;ratioP2
6667;SDS011;3370;47.712;9.082;2023-07-28T00:01:35;4.83;;;4.27;;
6667;SDS011;3370;47.712;9.082;2023-07-28T00:04:01;3.60;;;3.40;;
6667;SDS011;3370;47.712;9.082;2023-07-28T00:06:32;4.13;;;3.83;;
6667;SDS011;3370;47.712;9.082;2023-07-28T00:08:58;5.10;;;4.30;;
6667;SDS011;3370;47.712;9.082;2023-07-28T00:11:24;4.23;;;3.93;;
6667;SDS011;3370;47.712;9.082;2023-07-28T00:13:50;4.57;;;4.17;;
6667;SDS011;3370;47.712;9.082;2023-07-28T00:16:16;4.37;;;4.07;;
6667;SDS011;3370;47.712;9.082;2023-07-28T00:18:42;4.00;;;3.70;;
6667;SDS011;3370;47.712;9.082;2023-07-28T00:21:07;4.30;;;3.90;;
6667;SDS011;3370;47.712;9.082;2023-07-28T00:23:33;4.60;;;4.20;;
6667;SDS011;3370;47.712;9.082;2023-07-28T00:25:59;4.20;;;3.80;;
6667;SDS011;3370;47.712;9.082;2023-07-28T00:28:25;5.70;;;4.43;;
6667;SDS011;3370;47.712;9.082;2023-07-28T00:30:50;4.00;;;3.60;;
6667;SDS011;3370;47.712;9.082;2023-07-28T00:33:16;4.27;;;3.97;;
6667;SDS011;3370;47.712;9.082;2023-07-28T00:35:42;6.50;;;4.53;;
6667;SDS011;3370;47.712;9.082;2023-07-28T00:38:08;4.70;;;4.30;;
6667;SDS011;3370;47.712;9.082;2023-07-28T00:40:35;7.23;;;4.07;;
6667;SDS011;3370;47.712;9.082;2023-07-28T00:43:01;5.70;;;4.23;;
6667;SDS011;3370;47.712;9.082;2023-07-28T00:45:27;3.80;;;3.50;;
6667;SDS011;3370;47.712;9.082;2023-07-28T00:47:55;5.53;;;4.13;;
6667;SDS011;3370;47.712;9.082;2023-07-28T00:50:25;5.03;;;4.53;;
6667;SDS011;3370;47.712;9.082;2023-07-28T00:52:51;4.47;;;4.07;;
6667;SDS011;3370;47.712;9.082;2023-07-28T00:55:17;4.03;;;3.73;;
6667;SDS011;3370;47.712;9.082;2023-07-28T00:57:43;5.10;;;4.00;;
6667;SDS011;3370;47.712;9.082;2023-07-28T01:00:10;7.23;;;4.10;;
6667;SDS011;3370;47.712;9.082;2023-07-28T01:02:36;7.27;;;4.03;;
6667;SDS011;3370;47.712;9.082;2023-07-28T01:05:02;6.27;;;4.70;;
6667;SDS011;3370;47.712;9.082;2023-07-28T01:10:28;4.23;;;3.93;;
6667;SDS011;3370;47.712;9.082;2023-07-28T01:12:59;8.53;;;4.87;;
6667;SDS011;3370;47.712;9.082;2023-07-28T01:15:25;4.83;;;4.13;;
6667;SDS011;3370;47.712;9.082;2023-07-28T01:17:51;5.27;;;4.73;;
6667;SDS011;3370;47.712;9.082;2023-07-28T01:20:17;5.07;;;4.00;;
6667;SDS011;3370;47.712;9.082;2023-07-28T01:22:48;4.63;;;4.23;;
6667;SDS011;3370;47.712;9.082;2023-07-28T01:28:33;4.33;;;3.90;;
6667;SDS011;3370;47.712;9.082;2023-07-28T01:31:04;4.70;;;4.20;;
6667;SDS011;3370;47.712;9.082;2023-07-28T01:33:32;4.90;;;4.60;;
6667;SDS011;3370;47.712;9.082;2023-07-28T01:35:58;4.20;;;3.90;;
6667;SDS011;3370;47.712;9.082;2023-07-28T01:38:26;5.20;;;4.47;;
6667;SDS011;3370;47.712;9.082;2023-07-28T01:40:52;7.83;;;4.10;;
6667;SDS011;3370;47.712;9.082;2023-07-28T01:43:18;4.90;;;4.50;;
6667;SDS011;3370;47.712;9.082;2023-07-28T01:45:44;4.70;;;4.23;;
6667;SDS011;3370;47.712;9.082;2023-07-28T01:48:10;6.10;;;4.40;;
6667;SDS011;3370;47.712;9.082;2023-07-28T01:50:36;4.57;;;4.17;;
6667;SDS011;3370;47.712;9.082;2023-07-28T01:53:03;4.90;;;4.20;;
6667;SDS011;3370;47.712;9.082;2023-07-28T01:55:31;6.60;;;4.30;;
6667;SDS011;3370;47.712;9.082;2023-07-28T01:57:57;4.77;;;4.37;;
6667;SDS011;3370;47.712;9.082;2023-07-28T02:00:26;5.10;;;4.33;;
6667;SDS011;3370;47.712;9.082;2023-07-28T02:02:52;4.33;;;4.03;;
6667;SDS011;3370;47.712;9.082;2023-07-28T02:05:19;5.60;;;4.30;;
6667;SDS011;3370;47.712;9.082;2023-07-28T02:07:45;8.10;;;4.47;;
6667;SDS011;3370;47.712;9.082;2023-07-28T02:10:11;5.43;;;4.30;;
6667;SDS011;3370;47.712;9.082;2023-07-28T02:12:37;5.07;;;4.60;;
6667;SDS011;3370;47.712;9.082;2023-07-28T02:15:05;4.93;;;4.53;;
6667;SDS011;3370;47.712;9.082;2023-07-28T02:17:31;5.73;;;4.43;;
6667;SDS011;3370;47.712;9.082;2023-07-28T02:19:57;4.60;;;4.20;;
6667;SDS011;3370;47.712;9.082;2023-07-28T02:22:23;5.87;;;5.07;;
6667;SDS011;3370;47.712;9.082;2023-07-28T02:24:49;5.80;;;5.03;;
6667;SDS011;3370;47.712;9.082;2023-07-28T02:27:14;5.10;;;4.70;;
6667;SDS011;3370;47.712;9.082;2023-07-28T02:29:40;5.10;;;4.70;;
6667;SDS011;3370;47.712;9.082;2023-07-28T02:32:07;5.73;;;4.23;;
6667;SDS011;3370;47.712;9.082;2023-07-28T02:34:33;5.10;;;4.70;;
6667;SDS011;3370;47.712;9.082;2023-07-28T02:36:59;6.70;;;4.27;;
6667;SDS011;3370;47.712;9.082;2023-07-28T02:39:25;7.80;;;4.37;;
6667;SDS011;3370;47.712;9.082;2023-07-28T02:41:51;5.13;;;4.63;;
6667;SDS011;3370;47.712;9.082;2023-07-28T02:44:16;5.17;;;4.77;;
6667;SDS011;3370;47.712;9.082;2023-07-28T02:46:42;5.87;;;4.50;;
6667;SDS011;3370;47.712;9.082;2023-07-28T02:49:08;5.87;;;5.27;;
6667;SDS011;3370;47.712;9.082;2023-07-28T02:51:34;6.50;;;5.57;;
6667;SDS011;3370;47.712;9.082;2023-07-28T02:54:00;15.20;;;5.63;;
6667;SDS011;3370;47.712;9.082;2023-07-28T02:56:28;5.20;;;4.73;;
6667;SDS011;3370;47.712;9.082;2023-07-28T02:58:54;7.83;;;5.50;;
6667;SDS011;3370;47.712;9.082;2023-07-28T03:01:20;9.83;;;5.83;;
6667;SDS011;3370;47.712;9.082;2023-07-28T03:03:46;6.40;;;5.50;;
6667;SDS011;3370;47.712;9.082;2023-07-28T03:06:12;6.53;;;5.90;;
6667;SDS011;3370;47.712;9.082;2023-07-28T03:08:38;7.60;;;5.53;;
6667;SDS011;3370;47.712;9.082;2023-07-28T03:11:04;6.47;;;5.87;;
6667;SDS011;3370;47.712;9.082;2023-07-28T03:13:29;5.33;;;4.90;;
6667;SDS011;3370;47.712;9.082;2023-07-28T03:15:55;10.50;;;5.40;;
6667;SDS011;3370;47.712;9.082;2023-07-28T03:18:21;6.87;;;4.80;;
6667;SDS011;3370;47.712;9.082;2023-07-28T03:20:47;6.67;;;5.23;;
6667;SDS011;3370;47.712;9.082;2023-07-28T03:23:12;6.20;;;4.83;;
6667;SDS011;3370;47.712;9.082;2023-07-28T03:25:39;6.47;;;5.77;;
6667;SDS011;3370;47.712;9.082;2023-07-28T03:28:04;13.67;;;6.17;;
6667;SDS011;3370;47.712;9.082;2023-07-28T03:30:30;7.03;;;5.63;;
6667;SDS011;3370;47.712;9.082;2023-07-28T03:32:56;5.83;;;5.33;;
6667;SDS011;3370;47.712;9.082;2023-07-28T03:35:22;6.07;;;5.47;;
6667;SDS011;3370;47.712;9.082;2023-07-28T03:37:48;9.00;;;6.27;;
6667;SDS011;3370;47.712;9.082;2023-07-28T03:40:13;5.40;;;4.90;;
6667;SDS011;3370;47.712;9.082;2023-07-28T03:42:39;5.87;;;5.27;;
6667;SDS011;3370;47.712;9.082;2023-07-28T03:45:05;8.90;;;5.83;;
6667;SDS011;3370;47.712;9.082;2023-07-28T03:47:32;7.80;;;5.57;;
6667;SDS011;3370;47.712;9.082;2023-07-28T03:49:58;7.53;;;6.00;;
6667;SDS011;3370;47.712;9.082;2023-07-28T03:52:23;8.23;;;6.00;;
6667;SDS011;3370;47.712;9.082;2023-07-28T03:54:49;6.57;;;5.87;;
6667;SDS011;3370;47.712;9.082;2023-07-28T03:57:15;6.47;;;5.73;;
6667;SDS011;3370;47.712;9.082;2023-07-28T03:59:40;11.00;;;5.97;;
6667;SDS011;3370;47.712;9.082;2023-07-28T04:02:06;9.20;;;5.33;;
6667;SDS011;3370;47.712;9.082;2023-07-28T04:04:32;8.00;;;5.80;;
6667;SDS011;3370;47.712;9.082;2023-07-28T04:06:59;10.70;;;5.53;;
6667;SDS011;3370;47.712;9.082;2023-07-28T04:09:26;6.93;;;5.43;;
6667;SDS011;3370;47.712;9.082;2023-07-28T04:11:52;8.90;;;5.20;;
6667;SDS011;3370;47.712;9.082;2023-07-28T04:14:18;5.97;;;5.30;;
6667;SDS011;3370;47.712;9.082;2023-07-28T04:16:44;5.33;;;4.83;;
6667;SDS011;3370;47.712;9.082;2023-07-28T04:19:09;11.43;;;5.30;;
6667;SDS011;3370;47.712;9.082;2023-07-28T04:21:35;5.80;;;5.30;;
6667;SDS011;3370;47.712;9.082;2023-07-28T04:24:05;5.03;;;4.53;;
6667;SDS011;3370;47.712;9.082;2023-07-28T04:26:32;5.70;;;4.70;;
6667;SDS011;3370;47.712;9.082;2023-07-28T04:28:58;5.13;;;4.60;;
6667;SDS011;3370;47.712;9.082;2023-07-28T04:31:24;5.63;;;5.13;;
6667;SDS011;3370;47.712;9.082;2023-07-28T04:33:50;5.20;;;4.70;;
6667;SDS011;3370;47.712;9.082;2023-07-28T04:36:16;4.97;;;4.47;;
6667;SDS011;3370;47.712;9.082;2023-07-28T04:38:42;8.37;;;5.27;;
6667;SDS011;3370;47.712;9.082;2023-07-28T04:41:08;6.53;;;5.00;;
6667;SDS011;3370;47.712;9.082;2023-07-28T04:43:33;6.20;;;5.03;;
6667;SDS011;3370;47.712;9.082;2023-07-28T04:45:59;5.63;;;5.13;;
6667;SDS011;3370;47.712;9.082;2023-07-28T04:48:26;4.97;;;4.50;;
6667;SDS011;3370;47.712;9.082;2023-07-28T04:50:52;6.50;;;5.00;;
6667;SDS011;3370;47.712;9.082;2023-07-28T04:53:19;5.33;;;4.67;;
6667;SDS011;3370;47.712;9.082;2023-07-28T04:55:44;5.30;;;4.80;;
6667;SDS011;3370;47.712;9.082;2023-07-28T04:58:10;7.70;;;4.57;;
6667;SDS011;3370;47.712;9.082;2023-07-28T05:00:36;6.70;;;4.63;;
6667;SDS011;3370;47.712;9.082;2023-07-28T05:03:01;11.10;;;5.70;;
6667;SDS011;3370;47.712;9.082;2023-07-28T05:05:28;6.00;;;5.40;;
6667;SDS011;3370;47.712;9.082;2023-07-28T05:07:54;5.93;;;5.00;;
6667;SDS011;3370;47.712;9.082;2023-07-28T05:10:20;6.03;;;4.50;;
6667;SDS011;3370;47.712;9.082;2023-07-28T05:12:46;5.90;;;4.93;;
6667;SDS011;3370;47.712;9.082;2023-07-28T05:15:13;6.63;;;4.30;;
6667;SDS011;3370;47.712;9.082;2023-07-28T05:17:40;5.77;;;5.27;;
6667;SDS011;3370;47.712;9.082;2023-07-28T05:20:06;4.80;;;4.40;;
6667;SDS011;3370;47.712;9.082;2023-07-28T05:22:32;5.00;;;4.60;;
6667;SDS011;3370;47.712;9.082;2023-07-28T05:24:58;4.90;;;4.40;;
6667;SDS011;3370;47.712;9.082;2023-07-28T05:27:24;6.13;;;5.40;;
6667;SDS011;3370;47.712;9.082;2023-07-28T05:29:50;6.33;;;5.10;;
6667;SDS011;3370;47.712;9.082;2023-07-28T05:32:15;5.20;;;4.70;;
6667;SDS011;3370;47.712;9.082;2023-07-28T05:34:42;7.87;;;4.90;;
6667;SDS011;3370;47.712;9.082;2023-07-28T05:37:08;5.53;;;4.93;;
6667;SDS011;3370;47.712;9.082;2023-07-28T05:39:35;6.33;;;4.60;;
6667;SDS011;3370;47.712;9.082;2023-07-28T05:42:01;4.67;;;4.27;;
6667;SDS011;3370;47.712;9.082;2023-07-28T05:44:28;4.57;;;4.17;;
6667;SDS011;3370;47.712;9.082;2023-07-28T05:46:53;5.30;;;4.80;;
6667;SDS011;3370;47.712;9.082;2023-07-28T05:49:19;5.90;;;4.80;;
6667;SDS011;3370;47.712;9.082;2023-07-28T05:51:45;5.40;;;4.33;;
6667;SDS011;3370;47.712;9.082;2023-07-28T05:54:14;9.10;;;4.57;;
6667;SDS011;3370;47.712;9.082;2023-07-28T05:56:40;4.83;;;4.43;;
6667;SDS011;3370;47.712;9.082;2023-07-28T05:59:06;4.67;;;4.27;;
6667;SDS011;3370;47.712;9.082;2023-07-28T06:01:32;6.03;;;4.33;;
6667;SDS011;3370;47.712;9.082;2023-07-28T06:03:58;4.87;;;4.37;;
6667;SDS011;3370;47.712;9.082;2023-07-28T06:06:25;5.60;;;4.00;;
6667;SDS011;3370;47.712;9.082;2023-07-28T06:08:51;4.80;;;3.77;;
6667;SDS011;3370;47.712;9.082;2023-07-28T06:11:18;5.50;;;4.23;;
6667;SDS011;3370;47.712;9.082;2023-07-28T06:13:46;4.30;;;3.90;;
6667;SDS011;3370;47.712;9.082;2023-07-28T06:16:12;8.70;;;5.07;;
6667;SDS011;3370;47.712;9.082;2023-07-28T06:18:39;7.33;;;4.30;;
6667;SDS011;3370;47.712;9.082;2023-07-28T06:21:04;7.30;;;4.37;;
6667;SDS011;3370;47.712;9.082;2023-07-28T06:23:31;4.73;;;4.33;;
6667;SDS011;3370;47.712;9.082;2023-07-28T06:25:56;4.60;;;4.00;;
6667;SDS011;3370;47.712;9.082;2023-07-28T06:28:22;4.13;;;3.80;;
6667;SDS011;3370;47.712;9.082;2023-07-28T06:30:53;5.70;;;4.17;;
6667;SDS011;3370;47.712;9.082;2023-07-28T06:33:23;4.37;;;3.97;;
6667;SDS011;3370;47.712;9.082;2023-07-28T06:35:50;4.60;;;4.20;;
6667;SDS011;3370;47.712;9.082;2023-07-28T06:38:17;8.73;;;4.10;;
6667;SDS011;3370;47.712;9.082;2023-07-28T06:40:43;4.40;;;4.00;;
6667;SDS011;3370;47.712;9.082;2023-07-28T06:43:09;5.00;;;3.70;;
6667;SDS011;3370;47.712;9.082;2023-07-28T06:45:34;3.80;;;3.50;;
6667;SDS011;3370;47.712;9.082;2023-07-28T06:48:01;7.80;;;4.90;;
6667;SDS011;3370;47.712;9.082;2023-07-28T06:50:26;4.20;;;3.80;;
6667;SDS011;3370;47.712;9.082;2023-07-28T06:52:52;3.80;;;3.50;;
6667;SDS011;3370;47.712;9.082;2023-07-28T06:55:18;5.83;;;3.60;;
6667;SDS011;3370;47.712;9.082;2023-07-28T06:57:46;4.80;;;3.83;;
6667;SDS011;3370;47.712;9.082;2023-07-28T07:00:11;4.90;;;3.90;;
6667;SDS011;3370;47.712;9.082;2023-07-28T07:02:38;7.30;;;3.80;;
6667;SDS011;3370;47.712;9.082;2023-07-28T07:05:04;4.20;;;3.30;;
6667;SDS011;3370;47.712;9.082;2023-07-28T07:07:30;5.77;;;4.00;;
6667;SDS011;3370;47.712;9.082;2023-07-28T07:09:57;3.33;;;3.10;;
6667;SDS011;3370;47.712;9.082;2023-07-28T07:12:23;4.07;;;3.77;;
6667;SDS011;3370;47.712;9.082;2023-07-28T07:14:48;3.70;;;3.40;;
6667;SDS011;3370;47.712;9.082;2023-07-28T07:17:14;5.00;;;3.53;;
6667;SDS011;3370;47.712;9.082;2023-07-28T07:19:40;4.50;;;4.10;;
6667;SDS011;3370;47.712;9.082;2023-07-28T07:22:06;4.47;;;4.03;;
6667;SDS011;3370;47.712;9.082;2023-07-28T07:24:32;4.20;;;3.87;;
6667;SDS011;3370;47.712;9.082;2023-07-28T07:26:58;3.90;;;3.60;;
6667;SDS011;3370;47.712;9.082;2023-07-28T07:29:23;4.00;;;3.60;;
6667;SDS011;3370;47.712;9.082;2023-07-28T07:31:49;4.10;;;3.70;;
6667;SDS011;3370;47.712;9.082;2023-07-28T07:34:20;5.60;;;3.30;;
6667;SDS011;3370;47.712;9.082;2023-07-28T07:36:46;8.37;;;3.50;;
6667;SDS011;3370;47.712;9.082;2023-07-28T07:39:12;4.10;;;3.40;;
6667;SDS011;3370;47.712;9.082;2023-07-28T07:41:38;4.70;;;3.67;;
6667;SDS011;3370;47.712;9.082;2023-07-28T07:44:04;3.63;;;3.33;;
6667;SDS011;3370;47.712;9.082;2023-07-28T07:46:30;5.30;;;3.50;;
6667;SDS011;3370;47.712;9.082;2023-07-28T07:48:56;3.60;;;3.30;;
6667;SDS011;3370;47.712;9.082;2023-07-28T07:51:22;7.47;;;3.17;;
6667;SDS011;3370;47.712;9.082;2023-07-28T07:53:48;3.53;;;3.23;;
6667;SDS011;3370;47.712;9.082;2023-07-28T07:56:14;4.60;;;3.20;;
6667;SDS011;3370;47.712;9.082;2023-07-28T07:58:40;3.63;;;3.07;;
6667;SDS011;3370;47.712;9.082;2023-07-28T08:01:05;5.90;;;3.20;;
6667;SDS011;3370;47.712;9.082;2023-07-28T08:03:31;3.33;;;3.03;;
6667;SDS011;3370;47.712;9.082;2023-07-28T08:05:57;3.33;;;3.07;;
6667;SDS011;3370;47.712;9.082;2023-07-28T08:08:23;3.33;;;3.13;;
6667;SDS011;3370;47.712;9.082;2023-07-28T08:10:49;3.40;;;3.10;;
6667;SDS011;3370;47.712;9.082;2023-07-28T08:13:16;3.13;;;2.93;;
6667;SDS011;3370;47.712;9.082;2023-07-28T08:15:45;3.40;;;3.10;;
6667;SDS011;3370;47.712;9.082;2023-07-28T08:18:12;4.17;;;3.13;;
6667;SDS011;3370;47.712;9.082;2023-07-28T08:20:38;5.57;;;3.27;;
6667;SDS011;3370;47.712;9.082;2023-07-28T08:23:04;5.17;;;2.87;;
6667;SDS011;3370;47.712;9.082;2023-07-28T08:25:30;3.00;;;2.73;;
6667;SDS011;3370;47.712;9.082;2023-07-28T08:27:56;3.00;;;2.80;;
6667;SDS011;3370;47.712;9.082;2023-07-28T08:30:22;3.53;;;3.03;;
6667;SDS011;3370;47.712;9.082;2023-07-28T08:32:47;4.00;;;3.70;;
6667;SDS011;3370;47.712;9.082;2023-07-28T08:35:14;3.33;;;3.03;;
6667;SDS011;3370;47.712;9.082;2023-07-28T08:37:40;3.73;;;3.40;;
6667;SDS011;3370;47.712;9.082;2023-07-28T08:40:06;5.60;;;3.50;;
6667;SDS011;3370;47.712;9.082;2023-07-28T08:42:37;3.30;;;3.10;;
6667;SDS011;3370;47.712;9.082;2023-07-28T08:45:04;3.07;;;2.87;;
6667;SDS011;3370;47.712;9.082;2023-07-28T08:47:33;4.90;;;3.00;;
6667;SDS011;3370;47.712;9.082;2023-07-28T08:49:59;4.87;;;2.80;;
6667;SDS011;3370;47.712;9.082;2023-07-28T08:52:26;4.93;;;3.20;;
6667;SDS011;3370;47.712;9.082;2023-07-28T08:54:52;3.37;;;3.07;;
6667;SDS011;3370;47.712;9.082;2023-07-28T08:57:18;4.87;;;3.03;;
6667;SDS011;3370;47.712;9.082;2023-07-28T08:59:45;4.07;;;3.13;;
6667;SDS011;3370;47.712;9.082;2023-07-28T09:02:15;4.03;;;3.23;;
6667;SDS011;3370;47.712;9.082;2023-07-28T09:04:44;3.50;;;3.23;;
6667;SDS011;3370;47.712;9.082;2023-07-28T09:07:12;5.17;;;3.30;;
6667;SDS011;3370;47.712;9.082;2023-07-28T09:09:39;5.00;;;3.40;;
6667;SDS011;3370;47.712;9.082;2023-07-28T09:12:06;3.30;;;3.00;;
6667;SDS011;3370;47.712;9.082;2023-07-28T09:14:34;6.40;;;3.03;;
6667;SDS011;3370;47.712;9.082;2023-07-28T09:17:12;4.60;;;2.97;;
6667;SDS011;3370;47.712;9.082;2023-07-28T09:19:51;3.83;;;2.97;;
6667;SDS011;3370;47.712;9.082;2023-07-28T09:22:22;4.27;;;3.30;;
6667;SDS011;3370;47.712;9.082;2023-07-28T09:24:49;3.57;;;3.20;;
6667;SDS011;3370;47.712;9.082;2023-07-28T09:27:23;4.60;;;3.33;;
6667;SDS011;3370;47.712;9.082;2023-07-28T09:29:54;4.47;;;3.30;;
6667;SDS011;3370;47.712;9.082;2023-07-28T09:32:30;4.00;;;3.60;;
6667;SDS011;3370;47.712;9.082;2023-07-28T09:35:09;3.93;;;3.53;;
6667;SDS011;3370;47.712;9.082;2023-07-28T09:37:39;3.90;;;3.20;;
6667;SDS011;3370;47.712;9.082;2023-07-28T09:40:10;6.90;;;3.63;;
6667;SDS011;3370;47.712;9.082;2023-07-28T09:42:38;4.13;;;3.73;;
6667;SDS011;3370;47.712;9.082;2023-07-28T09:45:10;5.17;;;3.13;;
6667;SDS011;3370;47.712;9.082;2023-07-28T09:47:36;3.63;;;3.33;;
6667;SDS011;3370;47.712;9.082;2023-07-28T09:50:04;4.63;;;3.30;;
6667;SDS011;3370;47.712;9.082;2023-07-28T09:52:43;3.60;;;3.30;;
6667;SDS011;3370;47.712;9.082;2023-07-28T09:55:12;4.17;;;3.77;;
6667;SDS011;3370;47.712;9.082;2023-07-28T09:57:44;4.10;;;3.70;;
6667;SDS011;3370;47.712;9.082;2023-07-28T10:00:19;3.60;;;3.10;;
6667;SDS011;3370;47.712;9.082;2023-07-28T10:02:47;4.50;;;3.67;;
6667;SDS011;3370;47.712;9.082;2023-07-28T10:05:15;6.00;;;3.73;;
6667;SDS011;3370;47.712;9.082;2023-07-28T10:07:42;4.60;;;4.20;;
6667;SDS011;3370;47.712;9.082;2023-07-28T10:10:11;4.17;;;3.87;;
6667;SDS011;3370;47.712;9.082;2023-07-28T10:12:42;4.23;;;3.77;;
6667;SDS011;3370;47.712;9.082;2023-07-28T10:15:14;5.23;;;3.87;;
6667;SDS011;3370;47.712;9.082;2023-07-28T10:17:43;5.23;;;3.73;;
6667;SDS011;3370;47.712;9.082;2023-07-28T10:20:29;9.73;;;3.90;;
6667;SDS011;3370;47.712;9.082;2023-07-28T10:23:03;4.10;;;3.70;;
6667;SDS011;3370;47.712;9.082;2023-07-28T10:25:39;3.77;;;3.47;;
6667;SDS011;3370;47.712;9.082;2023-07-28T10:31:04;5.20;;;4.30;;
6667;SDS011;3370;47.712;9.082;2023-07-28T10:33:33;4.40;;;4.00;;
6667;SDS011;3370;47.712;9.082;2023-07-28T10:38:46;5.77;;;3.20;;
6667;SDS011;3370;47.712;9.082;2023-07-28T10:42:02;6.47;;;4.03;;
6667;SDS011;3370;47.712;9.082;2023-07-28T10:44:30;10.77;;;3.80;;
6667;SDS011;3370;47.712;9.082;2023-07-28T10:46:57;3.43;;;3.13;;
6667;SDS011;3370;47.712;9.082;2023-07-28T10:49:24;4.00;;;3.70;;
6667;SDS011;3370;47.712;9.082;2023-07-28T10:51:50;5.00;;;4.17;;
6667;SDS011;3370;47.712;9.082;2023-07-28T10:54:16;3.80;;;3.50;;
6667;SDS011;3370;47.712;9.082;2023-07-28T10:56:45;4.47;;;3.47;;
6667;SDS011;3370;47.712;9.082;2023-07-28T10:59:12;6.53;;;3.50;;
6667;SDS011;3370;47.712;9.082;2023-07-28T11:01:39;3.77;;;2.93;;
6667;SDS011;3370;47.712;9.082;2023-07-28T11:04:13;4.03;;;3.70;;
6667;SDS011;3370;47.712;9.082;2023-07-28T11:06:45;4.77;;;3.87;;
6667;SDS011;3370;47.712;9.082;2023-07-28T11:09:18;6.80;;;3.70;;
6667;SDS011;3370;47.712;9.082;2023-07-28T11:11:49;4.10;;;3.70;;
6667;SDS011;3370;47.712;9.082;2023-07-28T11:14:16;5.40;;;3.70;;
6667;SDS011;3370;47.712;9.082;2023-07-28T11:16:42;6.03;;;3.77;;
6667;SDS011;3370;47.712;9.082;2023-07-28T11:19:10;4.00;;;3.57;;
6667;SDS011;3370;47.712;9.082;2023-07-28T11:21:42;7.30;;;3.70;;
6667;SDS011;3370;47.712;9.082;2023-07-28T11:24:17;4.77;;;4.13;;
6667;SDS011;3370;47.712;9.082;2023-07-28T11:26:44;6.43;;;3.73;;
6667;SDS011;3370;47.712;9.082;2023-07-28T11:29:13;3.67;;;3.37;;
6667;SDS011;3370;47.712;9.082;2023-07-28T11:31:40;3.97;;;3.67;;
6667;SDS011;3370;47.712;9.082;2023-07-28T11:34:13;5.87;;;4.03;;
6667;SDS011;3370;47.712;9.082;2023-07-28T11:36:40;5.80;;;3.57;;
6667;SDS011;3370;47.712;9.082;2023-07-28T11:39:06;5.70;;;3.63;;
6667;SDS011;3370;47.712;9.082;2023-07-28T11:41:33;4.30;;;3.60;;
6667;SDS011;3370;47.712;9.082;2023-07-28T11:43:59;4.10;;;3.70;;
6667;SDS011;3370;47.712;9.082;2023-07-28T11:46:36;4.47;;;3.23;;
6667;SDS011;3370;47.712;9.082;2023-07-28T11:49:09;3.73;;;3.43;;
6667;SDS011;3370;47.712;9.082;2023-07-28T11:51:48;8.20;;;3.93;;
6667;SDS011;3370;47.712;9.082;2023-07-28T11:54:18;5.30;;;3.50;;
6667;SDS011;3370;47.712;9.082;2023-07-28T11:56:47;3.93;;;3.57;;
6667;SDS011;3370;47.712;9.082;2023-07-28T11:59:15;12.60;;;3.90;;
6667;SDS011;3370;47.712;9.082;2023-07-28T12:04:26;4.33;;;3.90;;
6667;SDS011;3370;47.712;9.082;2023-07-28T12:12:21;3.63;;;3.40;;
6667;SDS011;3370;47.712;9.082;2023-07-28T12:14:49;5.60;;;3.50;;
6667;SDS011;3370;47.712;9.082;2023-07-28T12:17:22;9.80;;;3.80;;
6667;SDS011;3370;47.712;9.082;2023-07-28T12:20:03;4.90;;;4.40;;
6667;SDS011;3370;47.712;9.082;2023-07-28T12:22:41;4.57;;;3.70;;
6667;SDS011;3370;47.712;9.082;2023-07-28T12:25:08;3.93;;;3.50;;
6667;SDS011;3370;47.712;9.082;2023-07-28T12:27:36;4.30;;;4.00;;
6667;SDS011;3370;47.712;9.082;2023-07-28T12:30:02;4.03;;;3.73;;
6667;SDS011;3370;47.712;9.082;2023-07-28T12:32:29;4.33;;;3.40;;
6667;SDS011;3370;47.712;9.082;2023-07-28T12:34:55;6.03;;;3.97;;
6667;SDS011;3370;47.712;9.082;2023-07-28T12:37:21;4.53;;;4.13;;
6667;SDS011;3370;47.712;9.082;2023-07-28T12:39:48;4.17;;;3.77;;
6667;SDS011;3370;47.712;9.082;2023-07-28T12:42:14;4.60;;;3.70;;
6667;SDS011;3370;47.712;9.082;2023-07-28T12:44:40;4.57;;;4.17;;
6667;SDS011;3370;47.712;9.082;2023-07-28T12:47:07;3.93;;;3.53;;
6667;SDS011;3370;47.712;9.082;2023-07-28T12:49:33;4.03;;;3.60;;
6667;SDS011;3370;47.712;9.082;2023-07-28T12:52:03;3.83;;;3.53;;
6667;SDS011;3370;47.712;9.082;2023-07-28T12:54:32;6.87;;;3.43;;
6667;SDS011;3370;47.712;9.082;2023-07-28T12:56:58;4.13;;;3.73;;
6667;SDS011;3370;47.712;9.082;2023-07-28T12:59:24;5.47;;;4.20;;
6667;SDS011;3370;47.712;9.082;2023-07-28T13:01:50;3.70;;;3.40;;
6667;SDS011;3370;47.712;9.082;2023-07-28T13:04:15;5.33;;;4.00;;
6667;SDS011;3370;47.712;9.082;2023-07-28T13:06:42;4.10;;;3.60;;
6667;SDS011;3370;47.712;9.082;2023-07-28T13:09:08;4.40;;;4.00;;
6667;SDS011;3370;47.712;9.082;2023-07-28T13:11:34;4.53;;;4.10;;
6667;SDS011;3370;47.712;9.082;2023-07-28T13:14:00;4.40;;;3.53;;
6667;SDS011;3370;47.712;9.082;2023-07-28T13:16:27;4.30;;;3.90;;
6667;SDS011;3370;47.712;9.082;2023-07-28T13:18:52;5.30;;;3.43;;
6667;SDS011;3370;47.712;9.082;2023-07-28T13:21:18;3.93;;;3.60;;
6667;SDS011;3370;47.712;9.082;2023-07-28T13:23:44;7.40;;;3.67;;
6667;SDS011;3370;47.712;9.082;2023-07-28T13:26:10;5.93;;;4.00;;
6667;SDS011;3370;47.712;9.082;2023-07-28T13:28:35;4.63;;;4.20;;
6667;SDS011;3370;47.712;9.082;2023-07-28T13:31:02;7.50;;;4.10;;
6667;SDS011;3370;47.712;9.082;2023-07-28T13:33:29;5.83;;;4.10;;
6667;SDS011;3370;47.712;9.082;2023-07-28T13:35:55;5.90;;;4.13;;
6667;SDS011;3370;47.712;9.082;2023-07-28T13:38:21;4.40;;;3.40;;
6667;SDS011;3370;47.712;9.082;2023-07-28T13:40:47;5.00;;;4.27;;
6667;SDS011;3370;47.712;9.082;2023-07-28T13:43:13;4.37;;;4.03;;
6667;SDS011;3370;47.712;9.082;2023-07-28T13:45:39;4.57;;;4.17;;
6667;SDS011;3370;47.712;9.082;2023-07-28T13:48:05;4.77;;;4.37;;
6667;SDS011;3370;47.712;9.082;2023-07-28T13:50:30;4.20;;;3.77;;
6667;SDS011;3370;47.712;9.082;2023-07-28T13:52:56;4.50;;;4.10;;
6667;SDS011;3370;47.712;9.082;2023-07-28T13:55:22;3.83;;;3.33;;
6667;SDS011;3370;47.712;9.082;2023-07-28T13:57:48;4.03;;;3.70;;
6667;SDS011;3370;47.712;9.082;2023-07-28T14:00:14;4.30;;;3.60;;
6667;SDS011;3370;47.712;9.082;2023-07-28T14:02:40;4.87;;;3.57;;
6667;SDS011;3370;47.712;9.082;2023-07-28T14:05:06;3.60;;;3.30;;
6667;SDS011;3370;47.712;9.082;2023-07-28T14:07:33;4.17;;;3.87;;
6667;SDS011;3370;47.712;9.082;2023-07-28T14:10:00;5.20;;;4.20;;
6667;SDS011;3370;47.712;9.082;2023-07-28T14:12:26;4.73;;;3.67;;
6667;SDS011;3370;47.712;9.082;2023-07-28T14:14:52;4.23;;;3.80;;
6667;SDS011;3370;47.712;9.082;2023-07-28T14:17:17;4.83;;;3.40;;
6667;SDS011;3370;47.712;9.082;2023-07-28T14:19:43;4.00;;;3.70;;
6667;SDS011;3370;47.712;9.082;2023-07-28T14:22:09;3.87;;;3.47;;
6667;SDS011;3370;47.712;9.082;2023-07-28T14:24:35;5.17;;;3.90;;
6667;SDS011;3370;47.712;9.082;2023-07-28T14:27:01;6.50;;;3.80;;
6667;SDS011;3370;47.712;9.082;2023-07-28T14:29:27;5.23;;;3.77;;
6667;SDS011;3370;47.712;9.082;2023-07-28T14:31:53;3.47;;;3.17;;
6667;SDS011;3370;47.712;9.082;2023-07-28T14:34:19;3.57;;;3.23;;
6667;SDS011;3370;47.712;9.082;2023-07-28T14:36:45;3.57;;;3.27;;
6667;SDS011;3370;47.712;9.082;2023-07-28T14:39:10;5.23;;;3.90;;
6667;SDS011;3370;47.712;9.082;2023-07-28T14:41:36;5.73;;;3.20;;
6667;SDS011;3370;47.712;9.082;2023-07-28T14:44:02;7.77;;;3.80;;
6667;SDS011;3370;47.712;9.082;2023-07-28T14:46:28;6.10;;;3.77;;
6667;SDS011;3370;47.712;9.082;2023-07-28T14:48:54;4.43;;;4.03;;
6667;SDS011;3370;47.712;9.082;2023-07-28T14:51:20;4.07;;;3.77;;
6667;SDS011;3370;47.712;9.082;2023-07-28T14:53:47;6.97;;;3.70;;
6667;SDS011;3370;47.712;9.082;2023-07-28T14:56:14;7.90;;;3.40;;
6667;SDS011;3370;47.712;9.082;2023-07-28T14:58:41;5.63;;;3.87;;
6667;SDS011;3370;47.712;9.082;2023-07-28T15:01:07;4.80;;;4.13;;
6667;SDS011;3370;47.712;9.082;2023-07-28T15:03:35;3.50;;;3.20;;
6667;SDS011;3370;47.712;9.082;2023-07-28T15:06:02;5.10;;;3.50;;
6667;SDS011;3370;47.712;9.082;2023-07-28T15:08:29;5.10;;;3.93;;
6667;SDS011;3370;47.712;9.082;2023-07-28T15:10:56;5.43;;;3.97;;
6667;SDS011;3370;47.712;9.082;2023-07-28T15:13:23;4.13;;;3.70;;
6667;SDS011;3370;47.712;9.082;2023-07-28T15:15:49;6.30;;;3.97;;
6667;SDS011;3370;47.712;9.082;2023-07-28T15:18:15;4.10;;;3.80;;
6667;SDS011;3370;47.712;9.082;2023-07-28T15:20:41;4.80;;;4.40;;
6667;SDS011;3370;47.712;9.082;2023-07-28T15:23:07;6.60;;;4.10;;
6667;SDS011;3370;47.712;9.082;2023-07-28T15:25:34;6.13;;;4.00;;
6667;SDS011;3370;47.712;9.082;2023-07-28T15:28:00;6.57;;;4.37;;
6667;SDS011;3370;47.712;9.082;2023-07-28T15:30:26;4.40;;;3.90;;
6667;SDS011;3370;47.712;9.082;2023-07-28T15:32:52;4.37;;;3.90;;
6667;SDS011;3370;47.712;9.082;2023-07-28T15:35:17;5.70;;;3.90;;